• Join FlightAware (Why Join?)
  • Login
  • US Flag 
02:45PM EDT


 

Airport Tracker/Info


-or-


 

Live Flight TrackerFlight Track Log ✈ VH-LBY ✈ 15-May-2013 ✈ YDBY / DRB - YBRM / BME

Flight Track Log - Related Links

Times and Time Zones

All times are in EDT time to prevent confusion due to time zone crossing. See the VH-LBY flight status page for this flight to view local times or setup timezone preferences in your user account.

Time Position Orientation Groundspeed Altitude Reporting Facility
EDT Latitude Longitude Course Direction KTS MPH feet Rate Location/Type
04:41AM -17.3714 123.6611 247° West 300  Level Aus ATC (Calculated)
04:42AM -17.4076 123.5723 247° West 300  Level Aus ATC (Calculated)
04:44AM -17.4404 123.4919 247° West  Level FlightAware Approximate
04:45AM -17.4610 123.4411 247° West  Level FlightAware Approximate
04:45AM -17.4800 123.3944 247° West 300  Level Aus ATC (Calculated)
04:46AM -17.5161 123.3055 67° East 300  Level Aus ATC (Calculated)
04:47AM -17.5089 123.3233 247° West  Level FlightAware Approximate
04:48AM -17.5463 123.2309 247° West  Level FlightAware Approximate
04:49AM -17.5669 123.1801 247° West  Level FlightAware Approximate
04:50AM -17.5875 123.1292 247° West  Level FlightAware Approximate
04:51AM -17.6080 123.0784 247° West  Level FlightAware Approximate
04:51AM -17.6242 123.0384 247° West 300  Level Aus ATC (Calculated)
04:53AM -17.6605 122.9485 247° West  Level FlightAware Approximate
04:53AM -17.6601 122.9493 360° North 300  Level Aus ATC (Calculated)
04:53AM -17.6601 122.9493 247° West 300  Level Aus ATC (Calculated)
04:55AM -17.6895 122.8764 247° West  Level FlightAware Approximate
04:55AM -17.6961 122.8602 247° West 300  Level Aus ATC (Calculated)
04:56AM -17.7166 122.8093 247° West  Level FlightAware Approximate
04:57AM -17.7370 122.7583 247° West  Level FlightAware Approximate
04:58AM -17.7575 122.7074 247° West  Level FlightAware Approximate
04:58AM -17.8035 122.5926 67° East 300  Level Aus ATC (Calculated)
04:59AM -17.7780 122.6564 247° West  Level FlightAware Approximate
05:00AM -17.8277 122.5323 247° West  Level FlightAware Approximate
05:00AM -17.8393 122.5033 255° West 300  Level Aus ATC (Calculated)
05:00AM -17.8393 122.5033 360° North 300  Level Aus ATC (Calculated)
05:00AM -17.8393 122.5033 247° West 300  Level Aus ATC (Calculated)
05:01AM -17.8481 122.4813 247° West  Level FlightAware Approximate
05:02AM -17.8631 122.4438 247° West  Level FlightAware Approximate
05:03AM -17.8835 122.3928 247° West  Level FlightAware Approximate
05:04AM -17.9039 122.3417 247° West  Level FlightAware Approximate
05:05AM -17.9242 122.2907 247° West  Level FlightAware Approximate
05:06AM -17.9446 122.2396 247° West  Level FlightAware Approximate
05:07AM -17.9447 122.2317 247° West  Level Estimated
05:08AM -17.9463 122.2353 247° West  Level FlightAware Approximate
05:09AM -17.9447 122.2317 247° West  Level Estimated
05:10AM -17.9463 122.2353 247° West  Level FlightAware Approximate
05:11AM -17.9447 122.2317 247° West  Level Estimated
05:12AM -17.9463 122.2353 247° West  Level FlightAware Approximate
05:13AM -17.9447 122.2317 247° West  Level Estimated
05:14AM -17.9463 122.2353 247° West  Level FlightAware Approximate
05:15AM -17.9447 122.2317 247° West  Level Estimated
05:16AM -17.9463 122.2353 247° West  Level FlightAware Approximate
05:17AM -17.9447 122.2317 247° West  Level Estimated
05:18AM -17.9463 122.2353 247° West  Level FlightAware Approximate
05:19AM -17.9447 122.2317 247° West  Level Estimated
05:20AM -17.9463 122.2353 247° West  Level FlightAware Approximate
05:21AM -17.9447 122.2317 247° West  Level Estimated
05:22AM -17.9463 122.2353 247° West  Level FlightAware Approximate
05:23AM -17.9447 122.2317 247° West  Level Estimated
05:24AM -17.9463 122.2353 247° West  Level FlightAware Approximate
05:25AM -17.9447 122.2317 247° West  Level Estimated